Ever Ulysses — 9V7962 — position and weather

sailwx.info

Track history (hours):
 
Tides and Currents Weather Stations Pressure Air Temp Water Temp Dewpoint Dewpoint Depression Visibility Wind Speed Wind Dir Waves Ship Positions

Ever Ulysses

Last reported at 2015-Jun-25 08:31 UTC. Time now 2015-Jul-04 22:27 UTC.
Position N 24°54' E 120°25'.
Warning: this ship's position is 9 days out of date.

Length 285 m; draft 7.6 m.

Type: Cargo ship. MMSI: 564442000.

Date/timePositionNaut miles runAvg speedWind from/ knotsBaromVisibWave heightAir tempDewpointWater temp
2015-Jun-25 08:31N 24°54' E 120°25'6115.5
2015-Jun-25 04:33N 24°25' E 119°25'1615.7
2015-Jun-25 03:33N 24°18' E 119°10'1717.3
2015-Jun-25 02:33N 24°09' E 118°54'2120.7
2015-Jun-25 01:31N 23°56' E 118°35'1818.8
2015-Jun-25 00:33N 23°45' E 118°19'1514.4
2015-Jun-24 23:32N 23°36' E 118°06'2014.2
2015-Jun-24 22:07N 23°22' E 117°50'814.6
2015-Jun-24 21:33N 23°18' E 117°43'3315.2
2015-Jun-24 19:25N 22°60' E 117°13'1414.6
2015-Jun-24 18:28N 22°53' E 117°00'1414.6
2015-Jun-24 17:30N 22°45' E 116°48'13114.6
2015-Jun-24 08:31N 22°08' E 114°31'1514.1
2015-Jun-24 07:27N 22°07' E 114°15'1211.3
2015-Jun-24 06:23N 22°16' E 114°06'  
2015-Jun-19 01:15N 22°20' E 114°05'  
Track history (hours):
 
Tides and Currents Weather Stations Pressure Air Temp Water Temp Dewpoint Dewpoint Depression Visibility Wind Speed Wind Dir Waves Ship Positions

Ever Ulysses

Last reported at 2015-Jun-25 08:31 UTC. Time now 2015-Jul-04 22:27 UTC.
Position N 24°54' E 120°25'.
Warning: this ship's position is 9 days out of date.

Length 285 m; draft 7.6 m.

Type: Cargo ship. MMSI: 564442000.

Date/timePositionNaut miles runAvg speedWind from/ knotsBaromVisibWave heightAir tempDewpointWater temp
2015-Jun-25 08:31N 24°54' E 120°25'6115.5
2015-Jun-25 04:33N 24°25' E 119°25'1615.7
2015-Jun-25 03:33N 24°18' E 119°10'1717.3
2015-Jun-25 02:33N 24°09' E 118°54'2120.7
2015-Jun-25 01:31N 23°56' E 118°35'1818.8
2015-Jun-25 00:33N 23°45' E 118°19'1514.4
2015-Jun-24 23:32N 23°36' E 118°06'2014.2
2015-Jun-24 22:07N 23°22' E 117°50'814.6
2015-Jun-24 21:33N 23°18' E 117°43'3315.2
2015-Jun-24 19:25N 22°60' E 117°13'1414.6
2015-Jun-24 18:28N 22°53' E 117°00'1414.6
2015-Jun-24 17:30N 22°45' E 116°48'13114.6
2015-Jun-24 08:31N 22°08' E 114°31'1514.1
2015-Jun-24 07:27N 22°07' E 114°15'1211.3
2015-Jun-24 06:23N 22°16' E 114°06'  
2015-Jun-19 01:15N 22°20' E 114°05'  

Dump ship's entire track history